Time;durP1;ratioP1;P1;durP2;ratioP2;P2;SDS_P1;SDS_P2;PMS_P1;PMS_P2;Temp;Humidity;BMP_temperature;BMP_pressure;BME280_temperature;BME280_humidity;BME280_pressure;Samples;Min_cycle;Max_cycle;Signal;HPM_P1;HPM_P2
2022/08/10 00:00:27;;;;;;;1.70;1.60;;;20.20;53.80;;;;;;4187942;28;20212;-75
2022/08/10 00:02:29;;;;;;;2.37;1.60;;;20.20;54.10;;;;;;4190028;28;20263;-75
2022/08/10 00:04:31;;;;;;;2.27;1.70;;;20.20;54.30;;;;;;4187792;28;20208;-75
2022/08/10 00:06:34;;;;;;;2.13;1.77;;;20.10;54.50;;;;;;4190097;28;20213;-75
2022/08/10 00:08:36;;;;;;;1.63;1.43;;;20.10;54.30;;;;;;4183391;28;20260;-75
2022/08/10 00:10:39;;;;;;;2.20;1.90;;;20.00;54.60;;;;;;4189723;28;20682;-75
2022/08/10 00:12:41;;;;;;;2.23;1.90;;;20.00;55.10;;;;;;4188431;28;20233;-75
2022/08/10 00:14:44;;;;;;;1.83;1.60;;;20.00;55.70;;;;;;4185958;28;20223;-75
2022/08/10 00:16:46;;;;;;;2.10;1.70;;;19.90;56.00;;;;;;4181626;28;20213;-76
2022/08/10 00:18:48;;;;;;;2.17;1.70;;;19.90;55.80;;;;;;4184328;28;20267;-75
2022/08/10 00:20:49;;;;;;;2.10;1.80;;;19.90;55.50;;;;;;4190434;28;20227;-75
2022/08/10 00:22:53;;;;;;;2.47;1.77;;;19.90;56.10;;;;;;4189282;28;20270;-76
2022/08/10 00:24:56;;;;;;;3.13;1.93;;;19.80;56.60;;;;;;4186961;28;20287;-76
2022/08/10 00:26:58;;;;;;;3.73;1.70;;;19.80;57.20;;;;;;4188233;28;20989;-75
2022/08/10 00:29:00;;;;;;;2.83;1.70;;;19.80;57.20;;;;;;4188313;28;20235;-76
2022/08/10 00:31:02;;;;;;;2.17;1.80;;;19.80;56.90;;;;;;4187641;28;20239;-75
2022/08/10 00:33:04;;;;;;;2.70;1.73;;;19.70;57.50;;;;;;4188192;28;20233;-75
2022/08/10 00:35:07;;;;;;;1.87;1.70;;;19.70;57.80;;;;;;4179260;28;21196;-75
2022/08/10 00:37:09;;;;;;;3.13;1.77;;;19.70;58.10;;;;;;4181807;28;20208;-75
2022/08/10 00:39:12;;;;;;;2.63;1.70;;;19.60;58.40;;;;;;4184274;28;20201;-76
2022/08/10 00:41:14;;;;;;;2.00;1.80;;;19.60;58.10;;;;;;4188939;28;20261;-76
2022/08/10 00:43:16;;;;;;;3.40;1.93;;;19.60;58.20;;;;;;4191889;28;20636;-75
2022/08/10 00:45:18;;;;;;;2.23;1.90;;;19.60;58.70;;;;;;4188852;28;20248;-74
2022/08/10 00:47:20;;;;;;;1.90;1.70;;;19.60;59.40;;;;;;4183440;28;20203;-75
2022/08/10 00:49:22;;;;;;;1.93;1.70;;;19.50;59.10;;;;;;4186415;28;20307;-76
2022/08/10 00:51:24;;;;;;;2.03;1.63;;;19.50;60.30;;;;;;4184695;28;20201;-76
2022/08/10 00:53:26;;;;;;;3.33;1.90;;;19.50;59.80;;;;;;4182957;28;20658;-75
2022/08/10 00:55:30;;;;;;;2.90;1.80;;;19.40;60.10;;;;;;4187048;28;20310;-75
2022/08/10 00:57:34;;;;;;;2.67;1.90;;;19.40;61.00;;;;;;4185171;28;20214;-75
2022/08/10 00:59:36;;;;;;;2.10;1.80;;;19.40;61.70;;;;;;4190234;28;20213;-75
2022/08/10 01:01:37;;;;;;;2.47;1.90;;;19.30;61.80;;;;;;4190883;28;20225;-76
2022/08/10 01:03:39;;;;;;;3.63;1.70;;;19.30;63.30;;;;;;4184347;28;20781;-76
2022/08/10 01:05:51;;;;;;;2.23;1.70;;;19.30;62.90;;;;;;4184165;28;20279;-76
2022/08/10 01:08:15;;;;;;;3.60;2.20;;;19.30;62.70;;;;;;4187053;28;20204;-76
2022/08/10 01:10:34;;;;;;;2.63;1.80;;;19.20;63.50;;;;;;4187208;28;20204;-75
2022/08/10 01:12:44;;;;;;;2.40;1.70;;;19.20;63.50;;;;;;4188242;28;20231;-75
2022/08/10 01:14:53;;;;;;;2.10;1.73;;;19.10;65.00;;;;;;4187470;28;20212;-76
2022/08/10 01:17:06;;;;;;;3.23;1.80;;;19.20;65.40;;;;;;4187671;28;20210;-75
2022/08/10 01:19:22;;;;;;;2.27;1.87;;;19.10;65.20;;;;;;4184843;28;20290;-75
2022/08/10 01:21:46;;;;;;;2.00;1.40;;;19.10;65.80;;;;;;4186943;28;20658;-76
2022/08/10 01:24:14;;;;;;;2.90;1.73;;;19.00;66.90;;;;;;4185561;28;20220;-76
2022/08/10 01:26:39;;;;;;;2.43;1.73;;;19.00;66.70;;;;;;4183957;28;20285;-76
2022/08/10 01:28:55;;;;;;;2.00;1.73;;;19.00;67.80;;;;;;4188411;28;20238;-75
2022/08/10 01:31:01;;;;;;;2.03;1.70;;;18.90;68.00;;;;;;4185975;28;20204;-76
2022/08/10 01:33:08;;;;;;;2.83;2.13;;;18.90;69.30;;;;;;4189077;28;20309;-76
2022/08/10 01:35:18;;;;;;;2.00;1.80;;;18.90;70.10;;;;;;4187788;28;20222;-75
2022/08/10 01:37:26;;;;;;;2.20;2.00;;;18.90;70.60;;;;;;4178369;28;20216;-75
2022/08/10 01:39:36;;;;;;;2.07;1.87;;;18.90;70.00;;;;;;4183752;28;20204;-75
2022/08/10 01:41:41;;;;;;;3.07;2.10;;;18.80;70.90;;;;;;4188815;28;20227;-75
2022/08/10 01:43:48;;;;;;;3.00;1.97;;;18.80;71.20;;;;;;4178286;28;20223;-76
2022/08/10 01:45:56;;;;;;;2.10;1.90;;;18.80;73.10;;;;;;4187625;28;20207;-76
2022/08/10 01:50:29;;;;;;;2.67;2.10;;;18.70;72.60;;;;;;4184505;28;20228;-76
2022/08/10 01:52:32;;;;;;;2.43;1.87;;;18.70;73.30;;;;;;4185908;28;20251;-76
2022/08/10 01:54:35;;;;;;;2.43;2.00;;;18.70;75.00;;;;;;4178330;28;20223;-75
2022/08/10 01:56:39;;;;;;;2.67;2.00;;;18.70;75.20;;;;;;4178229;28;20247;-75
2022/08/10 01:58:43;;;;;;;3.07;2.20;;;18.70;75.80;;;;;;4201009;28;20217;-75
2022/08/10 02:00:46;;;;;;;2.50;1.90;;;18.70;76.80;;;;;;4185982;28;20734;-75
2022/08/10 02:02:50;;;;;;;2.10;1.90;;;18.60;76.70;;;;;;4188369;28;20230;-75
2022/08/10 02:04:55;;;;;;;2.63;2.13;;;18.60;78.60;;;;;;4189096;28;20211;-75
2022/08/10 02:06:57;;;;;;;2.27;1.97;;;18.60;76.90;;;;;;4182661;28;20206;-76
2022/08/10 02:09:02;;;;;;;2.63;2.20;;;18.60;78.80;;;;;;4190653;28;20203;-76
2022/08/10 02:11:05;;;;;;;2.47;2.20;;;18.50;79.50;;;;;;4186410;28;20305;-75
2022/08/10 02:13:09;;;;;;;3.30;2.23;;;18.50;79.10;;;;;;4182649;28;20239;-76
2022/08/10 02:15:16;;;;;;;2.23;1.87;;;18.50;78.70;;;;;;4185621;28;20682;-75
2022/08/10 02:17:20;;;;;;;3.37;2.50;;;18.50;82.10;;;;;;4184982;28;20651;-75
2022/08/10 02:19:24;;;;;;;2.87;2.17;;;18.50;81.50;;;;;;4189441;28;20215;-76
2022/08/10 02:21:29;;;;;;;2.23;2.03;;;18.40;82.10;;;;;;4183980;28;20246;-76
2022/08/10 02:23:34;;;;;;;4.23;2.70;;;18.40;82.90;;;;;;4180556;28;20629;-75
2022/08/10 02:25:37;;;;;;;3.30;2.20;;;18.40;83.10;;;;;;4178413;28;20945;-76
2022/08/10 02:27:40;;;;;;;2.90;2.20;;;18.40;83.00;;;;;;4178079;28;20668;-75
2022/08/10 02:29:44;;;;;;;2.80;2.27;;;18.40;82.80;;;;;;4180351;28;20219;-75
2022/08/10 02:31:46;;;;;;;2.53;1.90;;;18.40;84.70;;;;;;4189162;28;20303;-76
2022/08/10 02:33:49;;;;;;;3.10;2.20;;;18.30;84.00;;;;;;4190224;28;20309;-75
2022/08/10 02:35:53;;;;;;;2.97;1.90;;;18.30;87.00;;;;;;4186781;28;20211;-75
2022/08/10 02:38:02;;;;;;;3.80;2.27;;;18.30;87.10;;;;;;4188698;28;20575;-75
2022/08/10 02:40:04;;;;;;;2.50;2.30;;;18.30;87.60;;;;;;4186057;28;20308;-75
2022/08/10 02:42:13;;;;;;;2.70;2.00;;;18.30;89.20;;;;;;4184475;28;20229;-75
2022/08/10 02:44:22;;;;;;;2.67;2.07;;;18.20;89.50;;;;;;4184205;28;20634;-76
2022/08/10 02:46:29;;;;;;;2.30;2.10;;;18.20;90.10;;;;;;4188457;28;20637;-75
2022/08/10 02:48:42;;;;;;;2.93;1.90;;;18.20;89.70;;;;;;4188814;28;20244;-75
2022/08/10 02:50:49;;;;;;;2.73;2.20;;;18.20;91.00;;;;;;4186054;28;20205;-75
2022/08/10 02:52:59;;;;;;;3.10;2.20;;;18.10;91.00;;;;;;4187442;28;20229;-75
2022/08/10 02:55:05;;;;;;;2.77;2.20;;;18.10;91.30;;;;;;4188320;28;20237;-75
2022/08/10 02:57:13;;;;;;;2.53;2.03;;;18.10;91.20;;;;;;4185716;28;20221;-76
2022/08/10 02:59:20;;;;;;;3.60;2.10;;;18.10;91.20;;;;;;4186994;28;20204;-75
2022/08/10 03:01:26;;;;;;;3.23;2.33;;;18.10;92.20;;;;;;4186621;28;20213;-75
2022/08/10 03:03:32;;;;;;;3.30;2.10;;;18.10;92.00;;;;;;4186880;28;20226;-75
2022/08/10 03:05:35;;;;;;;2.93;2.30;;;18.10;92.70;;;;;;4188840;28;20255;-75
2022/08/10 03:07:42;;;;;;;2.50;2.30;;;18.00;92.40;;;;;;4190400;28;20261;-75
2022/08/10 03:09:47;;;;;;;2.53;2.00;;;18.10;92.60;;;;;;4186834;28;20698;-75
2022/08/10 03:11:51;;;;;;;3.60;2.17;;;18.10;92.10;;;;;;4188540;28;20854;-75
2022/08/10 03:13:55;;;;;;;2.73;2.20;;;18.10;93.50;;;;;;4180704;28;20289;-75
2022/08/10 03:16:01;;;;;;;2.57;2.13;;;18.10;92.70;;;;;;4186812;28;20296;-75
2022/08/10 03:18:04;;;;;;;4.90;2.17;;;18.10;93.20;;;;;;4194603;28;20202;-74
2022/08/10 03:20:07;;;;;;;3.17;2.13;;;18.10;93.70;;;;;;4187217;28;20206;-74
2022/08/10 03:22:13;;;;;;;3.30;1.90;;;18.10;93.40;;;;;;4185284;28;21010;-75
2022/08/10 03:24:19;;;;;;;3.10;2.20;;;18.10;93.70;;;;;;4190477;28;20210;-75
2022/08/10 03:26:22;;;;;;;2.60;2.00;;;18.10;93.60;;;;;;4186048;28;20285;-74
2022/08/10 03:28:27;;;;;;;2.73;2.37;;;18.10;93.80;;;;;;4189873;28;20297;-75
2022/08/10 03:30:30;;;;;;;4.23;2.30;;;18.10;94.00;;;;;;4190782;28;20230;-75
2022/08/10 03:32:34;;;;;;;2.80;2.10;;;18.10;94.00;;;;;;4188581;28;20222;-75
2022/08/10 03:34:36;;;;;;;2.60;2.17;;;18.10;94.40;;;;;;4186848;28;20696;-75
2022/08/10 03:36:38;;;;;;;2.50;2.03;;;18.10;94.40;;;;;;4190321;28;20263;-75
2022/08/10 03:38:43;;;;;;;2.80;2.33;;;18.10;94.50;;;;;;4190103;28;20237;-75
2022/08/10 03:40:47;;;;;;;3.30;2.17;;;18.10;94.80;;;;;;4187777;28;20255;-75
2022/08/10 03:42:53;;;;;;;3.10;2.00;;;18.10;95.10;;;;;;4185729;28;20258;-75
2022/08/10 03:44:57;;;;;;;2.90;2.30;;;18.10;95.10;;;;;;4187312;28;20221;-75
2022/08/10 03:47:01;;;;;;;4.67;2.37;;;18.10;95.90;;;;;;4187453;28;20296;-75
2022/08/10 03:49:05;;;;;;;2.73;2.10;;;18.10;95.70;;;;;;4193715;28;20233;-75
2022/08/10 03:51:09;;;;;;;3.03;2.30;;;18.10;95.90;;;;;;4189229;28;20221;-75
2022/08/10 03:53:15;;;;;;;2.27;1.93;;;18.10;96.60;;;;;;4185279;28;20253;-75
2022/08/10 03:55:17;;;;;;;2.33;2.13;;;18.10;96.60;;;;;;4185168;28;20214;-75
2022/08/10 03:57:20;;;;;;;4.17;2.30;;;18.10;96.30;;;;;;4187753;28;20712;-75
2022/08/10 03:59:24;;;;;;;2.40;1.90;;;18.10;96.90;;;;;;4189316;28;20301;-75
2022/08/10 04:01:27;;;;;;;2.30;2.10;;;18.00;97.20;;;;;;4194005;28;20744;-75
2022/08/10 04:03:29;;;;;;;3.17;2.50;;;18.00;97.50;;;;;;4187738;28;20236;-75
2022/08/10 04:05:31;;;;;;;4.27;2.87;;;18.00;97.70;;;;;;4186631;28;20217;-74
2022/08/10 04:07:35;;;;;;;3.60;2.40;;;18.00;97.50;;;;;;4186091;28;20198;-75
2022/08/10 04:09:38;;;;;;;5.10;2.30;;;18.00;98.10;;;;;;4179551;28;20275;-74
2022/08/10 04:11:40;;;;;;;2.73;2.40;;;18.00;98.00;;;;;;4187056;28;20229;-74
2022/08/10 04:13:42;;;;;;;4.67;2.47;;;18.00;98.40;;;;;;4188214;28;20655;-74
2022/08/10 04:15:46;;;;;;;2.93;2.40;;;17.90;98.20;;;;;;4179297;28;20272;-75
2022/08/10 04:17:48;;;;;;;2.73;2.30;;;17.90;98.00;;;;;;4185746;28;20202;-74
2022/08/10 04:19:50;;;;;;;4.30;2.70;;;17.90;98.30;;;;;;4182071;28;20198;-74
2022/08/10 04:22:06;;;;;;;3.23;2.70;;;17.90;98.70;;;;;;4188055;28;20305;-75
2022/08/10 04:24:13;;;;;;;2.93;2.23;;;17.90;98.40;;;;;;4185365;28;20240;-75
2022/08/10 04:26:16;;;;;;;2.97;2.40;;;17.90;98.20;;;;;;4184720;28;20301;-74
2022/08/10 04:28:19;;;;;;;3.60;2.30;;;17.90;99.00;;;;;;4183275;28;20211;-74
2022/08/10 04:30:21;;;;;;;3.83;2.60;;;17.80;98.50;;;;;;4178913;28;20203;-75
2022/08/10 04:32:28;;;;;;;3.53;2.60;;;17.80;98.90;;;;;;4185797;28;20257;-74
2022/08/10 04:34:31;;;;;;;3.77;2.73;;;17.80;98.40;;;;;;4185380;28;20639;-74
2022/08/10 04:36:34;;;;;;;4.33;2.63;;;17.80;99.60;;;;;;4185288;28;20214;-74
2022/08/10 04:38:37;;;;;;;3.87;2.53;;;17.80;99.90;;;;;;4186604;28;20234;-74
2022/08/10 04:40:40;;;;;;;3.47;2.30;;;17.80;99.90;;;;;;4187859;28;20328;-74
2022/08/10 04:42:42;;;;;;;2.80;2.20;;;17.70;99.90;;;;;;4184546;28;20239;-75
2022/08/10 04:44:44;;;;;;;3.47;2.50;;;17.70;99.90;;;;;;4184194;28;20260;-75
2022/08/10 04:46:46;;;;;;;5.97;2.80;;;17.70;99.90;;;;;;4184284;28;20244;-75
2022/08/10 04:48:49;;;;;;;3.37;2.60;;;17.70;99.90;;;;;;4183095;28;20292;-74
2022/08/10 04:50:51;;;;;;;3.27;2.27;;;17.70;99.90;;;;;;4186394;28;20600;-74
2022/08/10 04:52:53;;;;;;;3.50;2.43;;;17.70;99.90;;;;;;4186814;28;20304;-75
2022/08/10 04:54:55;;;;;;;3.20;2.70;;;17.60;99.90;;;;;;4184763;28;20214;-75
2022/08/10 04:56:57;;;;;;;4.40;2.60;;;17.60;99.90;;;;;;4187695;28;20211;-74
2022/08/10 04:58:59;;;;;;;4.33;2.47;;;17.60;99.90;;;;;;4186806;28;20317;-75
2022/08/10 05:01:01;;;;;;;4.00;2.33;;;17.60;99.90;;;;;;4177743;28;20743;-75
2022/08/10 05:03:03;;;;;;;3.73;2.80;;;17.60;99.90;;;;;;4183578;28;20321;-75
2022/08/10 05:05:08;;;;;;;3.63;2.93;;;17.60;99.90;;;;;;4184503;28;20573;-75
2022/08/10 05:07:11;;;;;;;3.47;2.30;;;17.60;99.90;;;;;;4193771;28;20224;-75
2022/08/10 05:09:13;;;;;;;4.80;2.60;;;17.60;99.90;;;;;;4184135;28;20229;-75
2022/08/10 05:11:17;;;;;;;3.37;2.57;;;17.60;99.90;;;;;;4181331;28;20207;-75
2022/08/10 05:13:19;;;;;;;5.63;2.80;;;17.60;99.90;;;;;;4182220;28;20254;-75
2022/08/10 05:15:23;;;;;;;4.00;2.47;;;17.60;99.90;;;;;;4186717;28;20249;-74
2022/08/10 05:17:25;;;;;;;4.33;2.77;;;17.60;99.90;;;;;;4185499;28;20264;-75
2022/08/10 05:19:27;;;;;;;2.90;2.30;;;17.60;99.90;;;;;;4186487;28;20234;-75
2022/08/10 05:21:30;;;;;;;3.27;2.60;;;17.60;99.90;;;;;;4185423;28;20227;-74
2022/08/10 05:23:32;;;;;;;3.90;2.33;;;17.60;99.90;;;;;;4185022;28;20234;-75
2022/08/10 05:25:34;;;;;;;4.03;2.33;;;17.60;99.90;;;;;;4183592;28;20301;-75
2022/08/10 05:27:36;;;;;;;3.93;2.57;;;17.60;99.90;;;;;;4181850;28;20298;-74
2022/08/10 05:29:39;;;;;;;3.57;2.50;;;17.60;99.90;;;;;;4185536;28;20237;-74
2022/08/10 05:31:41;;;;;;;4.70;2.57;;;17.60;99.90;;;;;;4183964;28;20262;-75
2022/08/10 05:33:43;;;;;;;4.50;2.90;;;17.60;99.90;;;;;;4188073;28;20249;-74
2022/08/10 05:35:45;;;;;;;4.57;2.70;;;17.60;99.90;;;;;;4187261;28;20288;-75
2022/08/10 05:37:51;;;;;;;4.63;2.70;;;17.60;99.90;;;;;;4186533;28;20261;-75
2022/08/10 05:39:54;;;;;;;4.83;2.70;;;17.60;99.90;;;;;;4186173;28;20275;-75
2022/08/10 05:41:57;;;;;;;7.60;2.70;;;17.60;99.90;;;;;;4187460;28;20301;-75
2022/08/10 05:43:59;;;;;;;4.47;2.73;;;17.60;99.90;;;;;;4186837;28;20268;-75
2022/08/10 05:46:01;;;;;;;4.50;2.90;;;17.70;99.90;;;;;;4183945;28;20245;-74
2022/08/10 05:48:04;;;;;;;3.93;2.50;;;17.70;99.90;;;;;;4182896;28;20217;-75
2022/08/10 05:50:07;;;;;;;3.10;2.60;;;17.70;99.90;;;;;;4184340;28;20635;-75
2022/08/10 05:52:09;;;;;;;3.23;2.60;;;17.70;99.90;;;;;;4187835;28;20206;-75
2022/08/10 05:54:14;;;;;;;3.17;2.43;;;17.80;99.90;;;;;;4185982;28;20278;-75
2022/08/10 05:56:16;;;;;;;3.37;2.47;;;17.80;99.90;;;;;;4185086;28;20218;-74
2022/08/10 05:58:18;;;;;;;3.33;2.60;;;17.80;99.90;;;;;;4178495;28;20210;-75
2022/08/10 06:00:23;;;;;;;3.37;2.47;;;17.80;99.90;;;;;;4187346;28;20326;-75
2022/08/10 06:02:28;;;;;;;4.00;2.90;;;17.80;99.90;;;;;;4178910;28;20743;-75
2022/08/10 06:04:38;;;;;;;4.60;2.40;;;17.80;99.90;;;;;;4190228;28;20242;-75
2022/08/10 06:06:43;;;;;;;4.23;2.80;;;17.80;99.90;;;;;;4189879;28;20205;-74
2022/08/10 06:08:47;;;;;;;4.23;2.43;;;17.90;99.90;;;;;;4187700;28;20691;-75
2022/08/10 06:10:53;;;;;;;3.47;2.47;;;17.90;99.90;;;;;;4185210;28;20271;-75
2022/08/10 06:15:18;;;;;;;4.13;3.00;;;18.00;99.90;;;;;;4187126;28;20808;-74
2022/08/10 06:17:20;;;;;;;3.70;2.53;;;18.00;99.90;;;;;;4186199;28;20302;-75
2022/08/10 06:19:23;;;;;;;3.97;2.77;;;18.00;99.90;;;;;;4186961;28;20205;-74
2022/08/10 06:21:25;;;;;;;3.60;2.80;;;18.00;99.90;;;;;;4188279;28;20217;-75
2022/08/10 06:23:29;;;;;;;3.10;2.63;;;18.10;99.90;;;;;;4180105;28;20685;-75
2022/08/10 06:25:31;;;;;;;3.73;2.60;;;18.10;99.90;;;;;;4185607;28;20220;-75
2022/08/10 06:27:36;;;;;;;3.27;2.57;;;18.10;99.90;;;;;;4179273;28;20214;-75
2022/08/10 06:29:41;;;;;;;3.10;2.70;;;18.10;99.90;;;;;;4184342;28;20289;-75
2022/08/10 06:31:47;;;;;;;4.10;2.80;;;18.20;99.90;;;;;;4185408;28;20329;-75
2022/08/10 06:33:50;;;;;;;4.13;2.73;;;18.20;99.90;;;;;;4182186;28;20289;-74
2022/08/10 06:35:53;;;;;;;4.07;2.77;;;18.20;99.90;;;;;;4185034;28;20214;-75
2022/08/10 06:37:58;;;;;;;4.00;2.70;;;18.30;99.90;;;;;;4188589;28;20300;-74
2022/08/10 06:40:00;;;;;;;3.30;2.60;;;18.30;99.90;;;;;;4188873;28;20213;-75
2022/08/10 06:42:08;;;;;;;4.90;2.70;;;18.30;99.90;;;;;;4184864;28;20210;-75
2022/08/10 06:44:18;;;;;;;3.77;2.53;;;18.40;99.90;;;;;;4186961;28;20340;-75
2022/08/10 06:46:23;;;;;;;4.20;2.60;;;18.40;99.90;;;;;;4186489;28;20302;-75
2022/08/10 06:48:28;;;;;;;5.03;2.77;;;18.50;99.90;;;;;;4190321;28;20207;-74
2022/08/10 06:50:36;;;;;;;7.63;4.13;;;18.50;99.90;;;;;;4187308;28;20215;-74
2022/08/10 06:52:41;;;;;;;14.90;7.50;;;18.50;99.90;;;;;;4186907;28;20359;-74
2022/08/10 06:54:44;;;;;;;15.07;8.40;;;18.60;99.90;;;;;;4190310;28;20207;-74
2022/08/10 06:56:47;;;;;;;16.70;9.47;;;18.60;99.90;;;;;;4189388;28;20302;-75
2022/08/10 06:58:53;;;;;;;26.00;13.83;;;18.60;99.90;;;;;;4189077;28;20208;-75
2022/08/10 07:00:56;;;;;;;24.90;12.27;;;18.70;99.90;;;;;;4190820;28;20297;-75
2022/08/10 07:03:06;;;;;;;34.07;17.13;;;18.70;99.90;;;;;;4189846;28;20679;-74
2022/08/10 07:05:11;;;;;;;37.83;18.50;;;18.70;99.90;;;;;;4188980;28;20312;-74
2022/08/10 07:07:18;;;;;;;38.87;20.00;;;18.80;99.90;;;;;;4180753;28;20211;-75
2022/08/10 07:09:21;;;;;;;28.97;17.00;;;18.80;99.90;;;;;;4183158;28;20742;-75
2022/08/10 07:11:24;;;;;;;27.13;15.20;;;18.80;99.90;;;;;;4188486;28;20284;-75
2022/08/10 07:13:27;;;;;;;24.87;14.47;;;18.90;99.90;;;;;;4187245;28;20234;-74
2022/08/10 07:15:30;;;;;;;24.37;13.27;;;19.00;99.90;;;;;;4189286;28;20295;-75
2022/08/10 07:17:37;;;;;;;21.37;11.63;;;19.00;99.90;;;;;;4186886;28;20288;-75
2022/08/10 07:19:46;;;;;;;17.77;10.43;;;19.10;99.90;;;;;;4181965;28;20213;-75
2022/08/10 07:21:49;;;;;;;14.57;8.77;;;19.20;99.90;;;;;;4187738;28;20211;-75
2022/08/10 07:23:52;;;;;;;11.77;7.17;;;19.20;99.90;;;;;;4189068;28;20235;-75
2022/08/10 07:25:54;;;;;;;9.90;6.53;;;19.30;99.90;;;;;;4188024;28;20553;-75
2022/08/10 07:27:59;;;;;;;7.87;5.47;;;19.30;99.90;;;;;;4190097;28;20288;-75
2022/08/10 07:30:02;;;;;;;7.83;5.20;;;19.40;99.90;;;;;;4189346;28;21234;-74
2022/08/10 07:32:05;;;;;;;6.93;4.40;;;19.40;99.90;;;;;;4189098;28;20244;-74
2022/08/10 07:34:09;;;;;;;8.50;4.47;;;19.50;99.90;;;;;;4190600;28;20212;-74
2022/08/10 07:36:12;;;;;;;5.50;3.60;;;19.50;99.90;;;;;;4188680;28;20217;-74
2022/08/10 07:38:19;;;;;;;4.77;3.73;;;19.50;99.90;;;;;;4184688;28;20673;-74
2022/08/10 07:40:22;;;;;;;6.40;3.83;;;19.70;99.90;;;;;;4184964;28;20267;-74
2022/08/10 07:42:27;;;;;;;4.53;3.13;;;19.70;99.70;;;;;;4186603;28;20617;-74
2022/08/10 07:44:30;;;;;;;4.50;3.10;;;19.70;99.00;;;;;;4186456;28;20243;-75
2022/08/10 07:46:34;;;;;;;5.17;3.00;;;19.80;98.50;;;;;;4185764;28;20213;-74
2022/08/10 07:48:43;;;;;;;4.53;2.93;;;19.90;98.20;;;;;;4189638;28;20337;-74
2022/08/10 07:50:48;;;;;;;3.87;2.60;;;19.90;97.80;;;;;;4186454;28;20590;-74
2022/08/10 07:52:52;;;;;;;4.77;2.60;;;20.00;96.90;;;;;;4193530;28;20232;-75
2022/08/10 07:54:55;;;;;;;4.20;2.50;;;20.10;96.20;;;;;;4189807;28;20221;-75
2022/08/10 07:57:02;;;;;;;3.00;2.50;;;20.20;95.50;;;;;;4188315;28;20298;-74
2022/08/10 07:59:07;;;;;;;5.10;2.87;;;20.20;94.40;;;;;;4190224;28;20654;-74
2022/08/10 08:01:09;;;;;;;3.30;2.60;;;20.30;93.90;;;;;;4179900;28;20214;-75
2022/08/10 08:03:13;;;;;;;3.50;2.63;;;20.40;93.20;;;;;;4187608;28;20280;-75
2022/08/10 08:05:16;;;;;;;3.43;2.50;;;20.40;92.50;;;;;;4184236;28;20226;-75
2022/08/10 08:07:20;;;;;;;3.33;2.60;;;20.50;92.40;;;;;;4187381;28;20630;-75
2022/08/10 08:09:24;;;;;;;3.30;2.60;;;20.60;91.60;;;;;;4188577;28;20671;-74
2022/08/10 08:11:27;;;;;;;3.23;2.60;;;20.60;91.20;;;;;;4184688;28;20644;-74
2022/08/10 08:13:33;;;;;;;3.10;2.30;;;20.70;90.60;;;;;;4189198;28;20225;-74
2022/08/10 08:15:35;;;;;;;3.83;2.50;;;20.80;90.20;;;;;;4186771;28;20734;-74
2022/08/10 08:17:39;;;;;;;3.93;2.53;;;20.80;89.50;;;;;;4186281;28;20205;-75
2022/08/10 08:19:43;;;;;;;3.07;2.40;;;20.90;89.50;;;;;;4186792;28;20221;-74
2022/08/10 08:21:46;;;;;;;3.47;2.60;;;21.00;85.80;;;;;;4190057;28;20208;-74
2022/08/10 08:23:51;;;;;;;4.00;2.67;;;21.10;83.90;;;;;;4186606;28;20240;-75
2022/08/10 08:25:54;;;;;;;4.63;2.70;;;21.10;82.90;;;;;;4183962;28;20248;-74
2022/08/10 08:27:58;;;;;;;3.57;2.30;;;21.20;81.00;;;;;;4188433;28;20213;-74
2022/08/10 08:30:01;;;;;;;2.33;2.13;;;21.30;80.40;;;;;;4187996;28;20232;-74
2022/08/10 08:32:07;;;;;;;3.93;2.50;;;21.40;78.50;;;;;;4186681;28;20209;-75
2022/08/10 08:34:12;;;;;;;3.33;2.50;;;21.40;77.30;;;;;;4185572;28;20234;-75
2022/08/10 08:36:16;;;;;;;4.50;2.67;;;21.50;74.10;;;;;;4188051;28;20221;-75
2022/08/10 08:38:19;;;;;;;3.03;2.43;;;21.60;72.90;;;;;;4186281;28;20248;-75
2022/08/10 08:40:26;;;;;;;4.10;2.50;;;21.70;71.80;;;;;;4184766;28;20220;-75
2022/08/10 08:42:44;;;;;;;2.40;2.20;;;21.80;70.00;;;;;;4186986;28;20273;-74
2022/08/10 08:45:03;;;;;;;3.57;2.50;;;21.80;69.30;;;;;;4190897;28;20232;-74
2022/08/10 08:47:22;;;;;;;3.43;2.20;;;21.90;66.70;;;;;;4192205;28;20216;-75
2022/08/10 08:49:49;;;;;;;2.37;1.83;;;22.00;65.30;;;;;;4198774;28;20230;-75
2022/08/10 08:52:07;;;;;;;3.83;2.30;;;22.10;64.20;;;;;;4192153;28;20305;-75
2022/08/10 08:54:23;;;;;;;4.23;2.10;;;22.20;62.50;;;;;;4196734;28;20686;-75
2022/08/10 08:56:31;;;;;;;3.30;2.43;;;22.30;59.90;;;;;;4202992;28;20212;-76
2022/08/10 08:58:58;;;;;;;3.13;2.20;;;22.40;59.60;;;;;;4205052;28;20257;-75
2022/08/10 09:01:12;;;;;;;3.57;2.27;;;22.50;58.40;;;;;;4202466;28;20217;-75
2022/08/10 09:03:35;;;;;;;2.97;2.30;;;22.60;58.10;;;;;;4192092;28;20274;-75
2022/08/10 09:05:50;;;;;;;2.80;2.00;;;22.70;57.20;;;;;;4191908;28;20334;-75
2022/08/10 09:08:05;;;;;;;2.87;1.97;;;22.80;56.90;;;;;;4180983;28;20206;-74
2022/08/10 09:10:19;;;;;;;3.80;2.03;;;22.80;55.50;;;;;;4188712;28;20245;-75
2022/08/10 09:12:38;;;;;;;2.90;1.90;;;23.00;54.20;;;;;;4187632;28;20776;-75
2022/08/10 09:14:49;;;;;;;2.63;1.80;;;23.00;53.10;;;;;;4191835;28;20205;-75
2022/08/10 09:16:57;;;;;;;3.40;2.07;;;23.10;52.60;;;;;;4184812;28;20258;-75
2022/08/10 09:19:08;;;;;;;3.37;2.20;;;23.20;52.20;;;;;;4187076;28;20935;-74
2022/08/10 09:21:19;;;;;;;1.90;1.70;;;23.30;52.00;;;;;;4184494;28;20211;-76
2022/08/10 09:23:31;;;;;;;2.40;1.90;;;23.40;51.20;;;;;;4192212;28;20229;-76
2022/08/10 09:25:36;;;;;;;1.90;1.60;;;23.50;50.30;;;;;;4184177;28;20225;-75
2022/08/10 09:27:44;;;;;;;2.17;1.77;;;23.60;49.80;;;;;;4183037;28;20862;-74
2022/08/10 09:29:54;;;;;;;2.53;1.77;;;23.70;49.80;;;;;;4178329;28;20200;-75
2022/08/10 09:32:06;;;;;;;2.97;1.90;;;23.80;49.00;;;;;;4184700;28;20300;-75
2022/08/10 09:34:23;;;;;;;2.77;1.90;;;23.90;48.70;;;;;;4185963;28;20678;-76
2022/08/10 09:36:35;;;;;;;2.07;1.87;;;23.90;47.80;;;;;;4184091;28;20637;-75
2022/08/10 09:38:51;;;;;;;2.43;1.80;;;24.00;47.40;;;;;;4186021;28;20626;-75
2022/08/10 09:41:09;;;;;;;2.80;1.60;;;24.10;47.00;;;;;;4187422;28;20610;-74
2022/08/10 09:43:20;;;;;;;1.67;1.57;;;24.20;46.70;;;;;;4182844;28;20240;-74
2022/08/10 09:45:31;;;;;;;2.93;1.93;;;24.30;46.70;;;;;;4179567;28;20312;-75
2022/08/10 09:47:53;;;;;;;2.13;1.43;;;24.40;45.70;;;;;;4193539;28;20210;-75
2022/08/10 09:50:06;;;;;;;2.80;1.80;;;24.50;45.20;;;;;;4183062;28;20252;-74
2022/08/10 09:52:17;;;;;;;2.93;1.87;;;24.60;44.80;;;;;;4187137;28;20904;-76
2022/08/10 09:54:33;;;;;;;1.90;1.63;;;24.70;44.40;;;;;;4184713;28;20201;-75
2022/08/10 09:56:47;;;;;;;2.60;1.60;;;24.80;44.10;;;;;;4186349;28;20285;-75
2022/08/10 09:59:03;;;;;;;1.73;1.57;;;24.80;44.10;;;;;;4190049;28;20205;-76
2022/08/10 10:01:12;;;;;;;1.77;1.67;;;24.90;44.00;;;;;;4189501;28;20234;-74
2022/08/10 10:03:32;;;;;;;2.07;1.50;;;25.00;43.50;;;;;;4183771;28;20226;-75
2022/08/10 10:05:50;;;;;;;1.83;1.50;;;25.10;43.20;;;;;;4181747;28;20230;-74
2022/08/10 10:08:00;;;;;;;1.87;1.67;;;25.20;42.70;;;;;;4185481;28;20217;-75
2022/08/10 10:10:09;;;;;;;2.20;1.80;;;25.20;42.40;;;;;;4184295;28;20250;-75
2022/08/10 10:12:19;;;;;;;2.53;2.07;;;25.30;41.60;;;;;;4177220;28;20248;-74
2022/08/10 10:14:32;;;;;;;3.53;1.60;;;25.40;41.60;;;;;;4183159;28;20214;-75
2022/08/10 10:16:43;;;;;;;1.70;1.53;;;25.50;41.50;;;;;;4181237;28;20272;-75
2022/08/10 10:18:54;;;;;;;3.03;1.63;;;25.60;41.30;;;;;;4185011;28;20198;-74
2022/08/10 10:21:02;;;;;;;2.57;1.70;;;25.60;40.90;;;;;;4183593;28;20206;-75
2022/08/10 10:23:13;;;;;;;2.00;1.77;;;25.80;40.80;;;;;;4187458;28;20729;-75
2022/08/10 10:25:23;;;;;;;2.50;1.80;;;25.80;40.50;;;;;;4185959;28;20753;-74
2022/08/10 10:27:36;;;;;;;1.93;1.70;;;25.90;40.30;;;;;;4188399;28;20270;-75
2022/08/10 10:29:47;;;;;;;2.10;1.90;;;26.00;39.90;;;;;;4186577;28;20674;-75
2022/08/10 10:31:56;;;;;;;3.47;1.80;;;26.10;39.40;;;;;;4184913;28;20579;-75
2022/08/10 10:34:08;;;;;;;2.30;1.60;;;26.20;38.80;;;;;;4191767;28;20240;-75
2022/08/10 10:36:12;;;;;;;1.67;1.53;;;26.30;38.50;;;;;;4185016;28;20229;-75
2022/08/10 10:38:18;;;;;;;2.63;1.77;;;26.40;37.80;;;;;;4177738;28;20293;-74
2022/08/10 10:40:23;;;;;;;2.00;1.73;;;26.40;37.70;;;;;;4183465;28;20714;-75
2022/08/10 10:42:31;;;;;;;3.20;1.70;;;26.60;37.70;;;;;;4188034;28;20262;-75
2022/08/10 10:44:46;;;;;;;1.93;1.67;;;26.60;37.70;;;;;;4188219;28;20250;-75
2022/08/10 10:46:57;;;;;;;1.70;1.47;;;26.70;37.60;;;;;;4186895;28;20796;-75
2022/08/10 10:49:11;;;;;;;2.70;1.80;;;26.80;37.40;;;;;;4182854;28;20216;-74
2022/08/10 10:51:21;;;;;;;2.20;1.80;;;26.90;37.30;;;;;;4182949;28;20237;-76
2022/08/10 10:53:31;;;;;;;2.07;1.67;;;27.10;37.30;;;;;;4185915;28;20267;-75
2022/08/10 10:55:43;;;;;;;2.27;1.60;;;27.20;37.30;;;;;;4185266;28;20245;-76
2022/08/10 10:57:55;;;;;;;2.30;1.70;;;27.30;37.10;;;;;;4185347;28;20253;-75
2022/08/10 11:00:07;;;;;;;2.07;1.77;;;27.50;36.50;;;;;;4176148;28;20240;-75